Time;durP1;ratioP1;P1;durP2;ratioP2;P2;SDS_P1;SDS_P2;PMS_P1;PMS_P2;Temp;Humidity;BMP_temperature;BMP_pressure;BME280_temperature;BME280_humidity;BME280_pressure;Samples;Min_cycle;Max_cycle;Signal;HPM_P1;HPM_P2
2022/10/23 00:01:38;;;;;;;16.13;8.63;;;10.80;99.90;;;9.40;100.00;100806.38;4935134;29;20039;-79
2022/10/23 00:04:09;;;;;;;21.73;8.55;;;10.80;99.90;;;9.37;100.00;100802.16;4933662;29;20070;-79
2022/10/23 00:06:36;;;;;;;16.05;7.30;;;10.80;99.90;;;9.48;100.00;100817.91;4930038;29;20027;-81
2022/10/23 00:09:05;;;;;;;13.63;6.70;;;10.90;99.90;;;9.51;100.00;100808.47;4931754;28;20390;-79
2022/10/23 00:11:33;;;;;;;15.07;7.20;;;10.90;99.90;;;9.55;100.00;100817.94;4929474;29;20078;-79
2022/10/23 00:14:03;;;;;;;16.42;7.00;;;11.00;99.90;;;9.59;100.00;100818.34;4936724;28;20398;-79
2022/10/23 00:16:29;;;;;;;13.93;6.53;;;11.00;99.90;;;9.63;100.00;100812.28;4934415;29;20065;-79
2022/10/23 00:18:55;;;;;;;13.48;6.70;;;11.00;99.90;;;9.63;100.00;100795.94;4932731;29;20048;-79
2022/10/23 00:21:22;;;;;;;13.55;6.85;;;11.10;99.90;;;9.77;100.00;100815.03;4934681;28;20031;-79
2022/10/23 00:23:48;;;;;;;14.25;6.72;;;11.20;99.90;;;9.85;100.00;100812.13;4929800;28;20059;-79
2022/10/23 00:26:14;;;;;;;12.48;6.35;;;11.20;99.90;;;9.89;100.00;100821.56;4936496;28;20042;-77
2022/10/23 00:28:43;;;;;;;12.80;6.05;;;11.30;99.90;;;9.90;100.00;100816.91;4937886;28;20036;-79
2022/10/23 00:31:10;;;;;;;17.88;6.88;;;11.30;99.90;;;9.88;100.00;100808.97;4930669;28;20028;-79
2022/10/23 00:33:39;;;;;;;12.05;6.00;;;11.30;99.90;;;9.88;100.00;100814.41;4932232;29;20035;-80
2022/10/23 00:36:07;;;;;;;13.20;6.05;;;11.30;99.90;;;9.88;100.00;100814.41;4929287;29;20455;-79
2022/10/23 00:38:34;;;;;;;9.95;5.43;;;11.30;99.90;;;9.88;100.00;100816.28;4930697;29;20047;-79
2022/10/23 00:41:02;;;;;;;14.80;6.20;;;11.20;99.90;;;9.96;100.00;100817.97;4933696;29;20063;-82
2022/10/23 00:43:30;;;;;;;12.02;5.53;;;11.30;99.90;;;9.92;100.00;100812.97;4949384;28;20090;-81
2022/10/23 00:45:57;;;;;;;14.07;5.20;;;11.40;99.90;;;10.04;100.00;100817.78;4925003;28;20027;-80
2022/10/23 00:48:24;;;;;;;13.13;5.03;;;11.40;99.90;;;10.10;100.00;100816.94;4934955;28;20061;-80
2022/10/23 00:50:51;;;;;;;14.23;5.00;;;11.50;99.90;;;10.08;100.00;100808.16;4935096;28;20033;-81
2022/10/23 00:53:19;;;;;;;12.15;4.47;;;11.50;99.90;;;10.11;100.00;100812.31;4933243;29;20047;-79
2022/10/23 00:55:52;;;;;;;15.80;5.13;;;11.50;99.90;;;10.20;100.00;100811.91;4933228;28;20122;-80
2022/10/23 00:58:20;;;;;;;10.23;4.43;;;11.60;99.90;;;10.10;100.00;100799.75;4907202;28;20044;-80
2022/10/23 01:00:47;;;;;;;11.20;4.50;;;11.60;99.90;;;10.19;100.00;100815.69;4919194;29;20674;-80
2022/10/23 01:03:16;;;;;;;10.25;4.38;;;11.60;99.90;;;10.16;100.00;100810.66;4922895;28;20032;-80
2022/10/23 01:06:10;;;;;;;7.93;4.00;;;11.60;99.90;;;10.17;100.00;100806.88;4929733;29;20038;-79
2022/10/23 01:08:51;;;;;;;7.40;3.58;;;11.50;99.90;;;10.15;100.00;100808.13;4918398;29;20484;-81
2022/10/23 01:11:26;;;;;;;8.93;4.18;;;11.50;99.90;;;10.11;100.00;100795.97;4922177;29;20039;-80
2022/10/23 01:14:15;;;;;;;12.68;4.40;;;11.50;99.90;;;10.05;100.00;100794.91;4924217;29;20035;-80
2022/10/23 01:17:02;;;;;;;8.10;3.75;;;11.50;99.90;;;10.13;100.00;100788.41;4926127;29;21793;-80
2022/10/23 01:20:18;;;;;;;14.60;4.05;;;11.50;99.90;;;10.21;100.00;100775.41;4940528;28;20038;-79
2022/10/23 01:23:10;;;;;;;15.27;3.83;;;11.60;99.90;;;10.30;100.00;100789.66;4924184;29;20390;-81
2022/10/23 01:26:18;;;;;;;8.55;3.35;;;11.60;99.90;;;10.23;100.00;100797.03;4921006;29;20040;-80
2022/10/23 01:28:58;;;;;;;7.95;3.60;;;11.60;99.90;;;10.14;100.00;100801.84;4914024;29;20686;-80
2022/10/23 01:31:38;;;;;;;9.48;3.70;;;11.50;99.90;;;10.04;100.00;100787.78;4926842;29;20046;-80
2022/10/23 01:34:19;;;;;;;8.75;3.95;;;11.50;99.90;;;10.02;100.00;100803.50;4923708;29;20076;-80
2022/10/23 01:36:49;;;;;;;8.95;3.97;;;11.50;99.90;;;9.93;100.00;100795.56;4915928;29;20032;-79
2022/10/23 01:39:34;;;;;;;11.32;4.63;;;11.40;99.90;;;9.82;100.00;100781.72;4923123;28;20035;-79
2022/10/23 01:42:10;;;;;;;7.95;3.95;;;11.30;99.90;;;9.75;100.00;100773.53;4924641;29;20028;-78
2022/10/23 01:44:45;;;;;;;9.65;3.95;;;11.20;99.90;;;9.68;100.00;100776.25;4928149;29;20119;-79
2022/10/23 01:47:17;;;;;;;10.70;4.30;;;11.20;99.90;;;9.61;100.00;100769.94;4925479;29;20071;-79
2022/10/23 01:50:04;;;;;;;11.63;4.60;;;11.10;99.90;;;9.58;100.00;100764.91;4916656;29;20030;-79
2022/10/23 01:52:30;;;;;;;9.40;4.70;;;11.10;99.90;;;9.56;100.00;100767.88;4938812;28;20040;-79
2022/10/23 01:55:00;;;;;;;9.88;4.35;;;11.00;99.90;;;9.51;100.00;100770.34;4932104;28;20344;-80
2022/10/23 01:57:33;;;;;;;8.23;4.40;;;10.90;99.90;;;9.38;100.00;100754.00;4926733;29;20042;-80
2022/10/23 02:00:11;;;;;;;12.63;4.95;;;10.80;99.90;;;9.45;100.00;100760.28;4922637;29;20042;-81
2022/10/23 02:02:56;;;;;;;10.95;5.22;;;10.90;99.90;;;9.42;100.00;100761.56;4922636;29;20047;-79
2022/10/23 02:05:30;;;;;;;14.35;4.40;;;10.80;99.90;;;9.42;100.00;100756.09;4927763;29;20037;-79
2022/10/23 02:07:59;;;;;;;;;;;10.80;99.90;;;9.38;100.00;100756.72;4938705;29;20254;-78
2022/10/23 02:10:36;;;;;;;9.73;4.65;;;10.80;99.90;;;9.37;100.00;100763.22;4931566;29;19921;-78
2022/10/23 02:13:23;;;;;;;8.98;4.40;;;10.80;99.90;;;9.32;100.00;100763.81;4926692;29;20428;-78
2022/10/23 02:16:22;;;;;;;10.38;4.75;;;10.80;99.90;;;9.16;100.00;100765.03;4926793;29;20562;-78
2022/10/23 02:19:17;;;;;;;8.10;4.78;;;10.60;99.90;;;9.01;100.00;100771.47;4924059;29;20032;-79
2022/10/23 02:22:07;;;;;;;9.68;5.20;;;10.50;99.90;;;9.04;100.00;100768.34;4924484;29;20047;-79
2022/10/23 02:25:02;;;;;;;13.35;5.35;;;10.50;99.90;;;9.01;100.00;100744.25;4917335;29;20553;-78
2022/10/23 02:27:48;;;;;;;12.13;5.38;;;10.50;99.90;;;9.03;100.00;100752.22;4924947;29;20045;-78
2022/10/23 02:30:18;;;;;;;11.90;5.95;;;10.50;99.90;;;8.91;100.00;100739.22;4923567;28;20023;-77
2022/10/23 02:32:55;;;;;;;9.65;5.85;;;10.40;99.90;;;8.87;100.00;100737.09;4925848;29;20028;-79
2022/10/23 02:35:25;;;;;;;12.88;5.53;;;10.40;99.90;;;8.87;100.00;100746.09;4928397;29;20043;-78
2022/10/23 02:38:00;;;;;;;11.90;5.15;;;10.30;99.90;;;8.99;100.00;100748.22;4909565;29;20032;-79
2022/10/23 02:40:59;;;;;;;10.25;5.18;;;10.40;99.90;;;8.95;100.00;100744.25;4920794;29;20039;-79
2022/10/23 02:43:39;;;;;;;12.23;5.40;;;10.40;99.90;;;8.96;100.00;100746.75;4921917;29;20526;-80
2022/10/23 02:46:23;;;;;;;13.25;5.60;;;10.40;99.90;;;8.92;100.00;100742.75;4940787;29;20024;-80
2022/10/23 02:49:01;;;;;;;12.48;5.20;;;10.40;99.90;;;8.84;100.00;100740.22;4926991;29;20119;-79
2022/10/23 02:51:46;;;;;;;12.35;5.38;;;10.30;99.90;;;8.61;100.00;100725.06;4924649;29;20122;-79
2022/10/23 02:54:33;;;;;;;9.48;4.97;;;10.20;99.90;;;8.60;100.00;100743.25;4904991;29;20556;-79
2022/10/23 02:57:11;;;;;;;8.70;4.65;;;10.10;99.90;;;8.48;100.00;100739.38;4919302;29;20028;-79
2022/10/23 02:59:56;;;;;;;9.60;4.88;;;10.00;99.90;;;8.24;100.00;100738.00;4929186;28;20062;-79
2022/10/23 03:02:31;;;;;;;9.45;4.63;;;9.80;99.90;;;8.05;100.00;100738.47;4927879;29;20491;-79
2022/10/23 03:05:00;;;;;;;10.90;5.53;;;9.60;99.90;;;7.83;100.00;100709.72;4924872;29;20483;-78
2022/10/23 03:07:26;;;;;;;12.68;5.60;;;9.50;99.90;;;8.01;100.00;100733.66;4925079;28;20059;-78
2022/10/23 03:10:01;;;;;;;14.15;5.93;;;9.50;99.90;;;8.16;100.00;100739.00;4929556;29;20028;-79
2022/10/23 03:12:26;;;;;;;14.35;5.75;;;9.60;99.90;;;8.13;100.00;100718.47;4932015;28;20035;-77
2022/10/23 03:14:52;;;;;;;13.00;6.13;;;9.60;99.90;;;8.28;100.00;100720.25;4925645;29;20036;-79
2022/10/23 03:17:18;;;;;;;13.02;6.18;;;9.70;99.90;;;8.37;100.00;100716.31;4925752;29;20219;-81
2022/10/23 03:19:45;;;;;;;12.93;6.40;;;9.80;99.90;;;8.41;100.00;100704.00;4910798;29;20038;-79
2022/10/23 03:22:13;;;;;;;11.48;6.57;;;9.80;99.90;;;8.33;100.00;100698.75;4928580;29;20047;-77
2022/10/23 03:24:39;;;;;;;15.52;7.03;;;9.80;99.90;;;8.29;100.00;100689.31;4928476;28;20036;-78
2022/10/23 03:27:06;;;;;;;13.60;6.47;;;9.90;99.90;;;8.37;100.00;100707.34;4928162;29;20067;-78
2022/10/23 03:29:32;;;;;;;13.23;6.45;;;9.90;99.90;;;8.26;100.00;100684.28;4914166;29;20024;-79
2022/10/23 03:31:57;;;;;;;12.55;6.13;;;9.90;99.90;;;8.37;100.00;100710.88;4924561;28;20045;-78
2022/10/23 03:34:23;;;;;;;11.65;6.35;;;9.80;99.90;;;8.20;100.00;100702.22;4927700;28;20043;-78
2022/10/23 03:36:52;;;;;;;11.40;5.30;;;9.70;99.90;;;8.01;100.00;100701.06;4927943;29;20038;-78
2022/10/23 03:39:19;;;;;;;9.93;5.35;;;9.50;99.90;;;7.80;100.00;100689.19;4927438;29;20047;-79
2022/10/23 03:41:46;;;;;;;8.65;5.10;;;9.30;99.90;;;7.58;100.00;100672.94;4923977;29;20118;-79
2022/10/23 03:44:14;;;;;;;;;;;9.20;99.90;;;7.63;100.00;100694.09;4924183;29;20127;-78
2022/10/23 03:46:43;;;;;;;7.95;5.18;;;9.10;99.90;;;7.58;100.00;100691.94;4927616;28;19925;-79
2022/10/23 03:49:09;;;;;;;12.23;4.75;;;9.10;99.90;;;7.45;100.00;100679.09;4917997;29;20487;-79
2022/10/23 03:51:35;;;;;;;8.95;5.28;;;9.00;99.90;;;7.42;100.00;100700.34;4929666;29;20050;-80
2022/10/23 03:54:02;;;;;;;12.70;5.13;;;8.90;99.90;;;7.32;100.00;100687.97;4924501;29;20039;-81
2022/10/23 03:56:28;;;;;;;13.27;5.75;;;8.80;99.90;;;7.29;100.00;100701.06;4924654;29;20533;-80
2022/10/23 03:58:54;;;;;;;11.90;5.78;;;8.70;99.90;;;7.25;100.00;100684.34;4909871;29;20110;-80
2022/10/23 04:01:23;;;;;;;12.52;5.90;;;8.80;99.90;;;7.24;100.00;100679.09;4931610;29;20431;-80
2022/10/23 04:03:48;;;;;;;13.00;6.40;;;8.80;99.90;;;7.29;100.00;100685.63;4926436;29;20032;-80
2022/10/23 04:06:15;;;;;;;14.30;6.35;;;8.80;99.90;;;7.10;100.00;100668.13;4922484;29;20039;-79
2022/10/23 04:08:43;;;;;;;15.45;7.40;;;8.70;99.90;;;7.20;100.00;100682.22;4925050;29;20023;-79
2022/10/23 04:11:13;;;;;;;14.98;7.22;;;8.70;99.90;;;7.19;100.00;100694.09;4926212;29;20070;-77
2022/10/23 04:13:46;;;;;;;19.08;7.57;;;8.70;99.90;;;7.23;100.00;100689.13;4927314;29;20028;-79
2022/10/23 04:16:11;;;;;;;12.00;6.70;;;8.80;99.90;;;7.11;100.00;100677.97;4926022;29;20032;-79
2022/10/23 04:18:40;;;;;;;12.10;6.63;;;8.70;99.90;;;7.12;100.00;100700.47;4927456;29;20034;-80
2022/10/23 04:21:08;;;;;;;18.70;8.60;;;8.70;99.90;;;7.35;100.00;100697.59;4922273;29;20102;-79
2022/10/23 04:23:34;;;;;;;19.10;8.77;;;8.80;99.90;;;7.60;100.00;100697.19;4924291;29;20483;-79
2022/10/23 04:26:00;;;;;;;20.63;9.10;;;9.10;99.90;;;7.72;100.00;100692.06;4917627;29;20028;-78
2022/10/23 04:28:26;;;;;;;24.52;9.70;;;9.20;99.90;;;7.85;100.00;100694.06;4931016;29;20357;-79
2022/10/23 04:30:53;;;;;;;19.05;8.93;;;9.30;99.90;;;7.86;100.00;100687.59;4926937;29;20044;-79
2022/10/23 04:33:19;;;;;;;18.27;8.65;;;9.40;99.90;;;7.85;100.00;100694.88;4930691;29;20035;-80
2022/10/23 04:35:48;;;;;;;18.40;8.80;;;9.40;99.90;;;7.76;100.00;100683.31;4924308;29;20051;-79
2022/10/23 04:38:14;;;;;;;20.77;8.20;;;9.30;99.90;;;7.86;100.00;100693.00;4925600;29;20503;-79
2022/10/23 04:40:39;;;;;;;17.45;9.43;;;9.30;99.90;;;7.85;100.00;100691.34;4925855;29;20028;-78
2022/10/23 04:43:06;;;;;;;19.30;8.98;;;9.30;99.90;;;7.83;100.00;100691.53;4922010;29;20026;-79
2022/10/23 04:45:36;;;;;;;21.73;8.85;;;9.30;99.90;;;7.87;100.00;100683.81;4931209;29;20038;-78
2022/10/23 04:48:02;;;;;;;17.85;8.73;;;9.30;99.90;;;7.82;100.00;100676.25;4936024;29;20031;-77
2022/10/23 04:50:36;;;;;;;20.50;8.73;;;9.40;99.90;;;7.85;100.00;100688.63;4933364;29;20031;-79
2022/10/23 04:53:25;;;;;;;24.52;9.23;;;9.40;99.90;;;7.70;100.00;100672.44;4932140;29;20119;-78
2022/10/23 04:56:14;;;;;;;18.92;8.32;;;9.30;99.90;;;7.63;100.00;100673.19;4923254;28;20527;-80
2022/10/23 04:58:51;;;;;;;21.05;8.93;;;9.20;99.90;;;7.75;100.00;100686.25;4920540;29;20476;-80
2022/10/23 05:01:17;;;;;;;23.00;8.80;;;9.20;99.90;;;7.78;100.00;100674.97;4922469;29;20032;-78
2022/10/23 05:03:43;;;;;;;18.10;8.70;;;9.30;99.90;;;7.92;100.00;100684.06;4948627;28;20045;-81
2022/10/23 05:06:09;;;;;;;17.05;8.70;;;9.40;99.90;;;8.00;100.00;100686.63;4933846;29;20028;-80
2022/10/23 05:08:50;;;;;;;21.25;8.18;;;9.40;99.90;;;8.06;100.00;100685.81;4923216;29;20112;-79
2022/10/23 05:11:35;;;;;;;21.77;8.68;;;9.50;99.90;;;8.05;100.00;100686.84;4923829;29;20050;-80
2022/10/23 05:14:05;;;;;;;22.35;9.32;;;9.50;99.90;;;7.92;100.00;100679.47;4926299;29;20051;-81
2022/10/23 05:16:47;;;;;;;21.92;9.07;;;9.50;99.90;;;7.91;100.00;100672.34;4926854;29;20071;-79
2022/10/23 05:19:23;;;;;;;26.88;8.63;;;9.50;99.90;;;7.87;100.00;100672.97;4914734;29;20083;-80
2022/10/23 05:21:54;;;;;;;19.60;9.43;;;9.40;99.90;;;7.85;100.00;100673.16;4913853;29;20027;-80
2022/10/23 05:24:24;;;;;;;19.50;8.90;;;9.40;99.90;;;7.92;100.00;100674.03;4907132;28;20400;-78
2022/10/23 05:26:56;;;;;;;21.05;9.15;;;9.40;99.90;;;7.92;100.00;100667.78;4926686;29;20114;-80
2022/10/23 05:29:22;;;;;;;23.02;9.07;;;9.40;99.90;;;8.10;100.00;100678.13;4926553;29;20066;-78
2022/10/23 05:31:55;;;;;;;17.98;8.55;;;9.60;99.90;;;7.97;100.00;100664.47;4928999;29;20070;-81
2022/10/23 05:34:26;;;;;;;19.40;8.35;;;9.50;99.90;;;7.92;100.00;100662.34;4927101;28;20040;-81
2022/10/23 05:36:53;;;;;;;17.02;8.00;;;9.40;99.90;;;7.72;100.00;100643.19;4925849;29;20043;-80
2022/10/23 05:39:22;;;;;;;14.27;7.03;;;9.30;99.90;;;7.63;100.00;100656.91;4925650;29;21053;-77
2022/10/23 05:41:48;;;;;;;15.65;7.60;;;9.20;99.90;;;7.56;100.00;100657.88;4925417;29;20106;-80
2022/10/23 05:44:19;;;;;;;14.38;8.00;;;9.10;99.90;;;7.64;100.00;100663.19;4923812;29;20123;-80
2022/10/23 05:46:55;;;;;;;20.90;9.05;;;9.10;99.90;;;7.88;100.00;100663.78;4910102;29;20027;-80
2022/10/23 05:49:44;;;;;;;18.58;8.50;;;9.30;99.90;;;7.93;100.00;100661.28;4921789;29;20106;-82
2022/10/23 05:52:24;;;;;;;16.63;7.75;;;9.40;99.90;;;7.93;100.00;100666.72;4920731;29;20554;-78
2022/10/23 05:55:10;;;;;;;16.95;7.65;;;9.40;99.90;;;7.84;100.00;100651.63;4922163;29;20035;-79
2022/10/23 05:57:55;;;;;;;17.30;8.48;;;9.40;99.90;;;7.82;100.00;100640.94;4917252;29;20198;-80
2022/10/23 06:00:39;;;;;;;15.57;8.20;;;9.40;99.90;;;7.78;100.00;100656.78;4925388;29;20032;-79
2022/10/23 06:03:24;;;;;;;19.92;7.93;;;9.30;99.90;;;7.55;100.00;100634.47;4923988;29;20059;-78
2022/10/23 06:05:51;;;;;;;21.35;8.13;;;9.20;99.90;;;7.59;100.00;100649.38;4924688;29;20028;-78
2022/10/23 06:08:20;;;;;;;15.70;7.72;;;9.20;99.90;;;7.61;100.00;100645.41;4924349;29;20068;-78
2022/10/23 06:10:48;;;;;;;17.50;7.30;;;9.10;99.90;;;7.53;100.00;100650.97;4927221;29;20034;-77
2022/10/23 06:13:14;;;;;;;17.50;7.53;;;9.00;99.90;;;7.49;100.00;100650.53;4918332;29;20090;-79
2022/10/23 06:15:40;;;;;;;14.38;7.47;;;8.90;99.90;;;7.47;100.00;100638.19;4921812;29;20054;-78
2022/10/23 06:18:15;;;;;;;16.55;7.00;;;9.00;99.90;;;7.53;100.00;100653.69;4926090;29;20833;-80
2022/10/23 06:20:53;;;;;;;;;;;9.00;99.90;;;7.42;100.00;100638.78;4909433;29;20066;-80
2022/10/23 06:23:24;;;;;;;11.48;6.35;;;9.00;99.90;;;7.49;100.00;100652.41;4923068;29;19926;-77
2022/10/23 06:26:07;;;;;;;12.70;6.78;;;9.00;99.90;;;7.54;100.00;100655.38;4921883;29;20201;-81
2022/10/23 06:28:47;;;;;;;15.35;6.90;;;9.00;99.90;;;7.51;100.00;100653.06;4920801;29;20042;-76
2022/10/23 06:31:18;;;;;;;15.15;6.45;;;9.00;99.90;;;7.48;100.00;100640.69;4919984;29;20024;-81
2022/10/23 06:33:44;;;;;;;14.48;6.28;;;9.00;99.90;;;7.58;100.00;100658.53;4903296;29;20123;-79
2022/10/23 06:36:10;;;;;;;13.95;7.15;;;9.00;99.90;;;7.56;100.00;100638.88;4917810;29;20058;-79
2022/10/23 06:38:39;;;;;;;15.38;7.20;;;9.10;99.90;;;7.71;100.00;100652.38;4935151;29;20035;-79
2022/10/23 06:41:12;;;;;;;12.77;7.20;;;9.20;99.90;;;7.81;100.00;100647.44;4931932;29;20019;-77
2022/10/23 06:43:37;;;;;;;14.63;7.10;;;9.30;99.90;;;7.85;100.00;100637.84;4929036;29;20028;-79
2022/10/23 06:46:17;;;;;;;16.48;7.70;;;9.30;99.90;;;7.97;100.00;100650.88;4918790;29;20035;-77
2022/10/23 06:49:02;;;;;;;15.93;7.20;;;9.40;99.90;;;8.03;100.00;100652.78;4919619;29;20542;-78
2022/10/23 06:51:32;;;;;;;15.95;8.07;;;9.50;99.90;;;8.08;100.00;100650.31;4928138;29;20032;-78
2022/10/23 06:53:57;;;;;;;15.02;8.05;;;9.50;99.90;;;8.08;100.00;100644.88;4924964;29;20700;-76
2022/10/23 06:57:01;;;;;;;13.00;7.10;;;9.60;99.90;;;8.14;100.00;100632.38;4929309;28;20098;-78
2022/10/23 06:59:38;;;;;;;15.85;7.93;;;9.70;99.90;;;8.25;100.00;100644.56;4928953;29;20763;-77
2022/10/23 07:02:06;;;;;;;18.83;7.43;;;9.70;99.90;;;8.25;100.00;100626.34;4926369;29;20362;-77
2022/10/23 07:04:31;;;;;;;14.75;7.07;;;9.80;99.90;;;8.33;100.00;100622.63;4923365;28;20032;-77
2022/10/23 07:06:59;;;;;;;18.65;7.60;;;9.90;99.90;;;8.51;100.00;100626.72;4921930;28;20032;-76
2022/10/23 07:09:35;;;;;;;21.30;7.95;;;10.00;99.90;;;8.55;100.00;100627.97;4925621;29;20087;-75
2022/10/23 07:12:18;;;;;;;19.83;8.27;;;10.00;99.90;;;8.52;100.00;100628.38;4927080;28;20115;-74
2022/10/23 07:14:49;;;;;;;21.42;8.82;;;10.10;99.90;;;8.63;100.00;100635.94;4920496;29;20038;-74
2022/10/23 07:17:15;;;;;;;20.48;9.82;;;10.10;99.90;;;8.74;100.00;100634.50;4922942;29;20040;-75
2022/10/23 07:19:41;;;;;;;24.60;10.10;;;10.20;99.90;;;8.86;100.00;100642.91;4926972;29;20028;-74
2022/10/23 07:22:11;;;;;;;23.77;10.98;;;10.30;99.90;;;8.95;100.00;100627.25;4925514;29;20177;-75
2022/10/23 07:25:04;;;;;;;29.25;11.80;;;10.50;99.90;;;9.11;100.00;100628.72;4927210;29;20047;-75
2022/10/23 07:27:37;;;;;;;27.58;12.55;;;10.60;99.90;;;9.20;100.00;100628.31;4926974;29;20031;-76
2022/10/23 07:30:06;;;;;;;26.15;12.10;;;10.70;99.90;;;9.26;100.00;100618.47;4936895;29;20027;-74
2022/10/23 07:32:39;;;;;;;22.75;11.98;;;10.70;99.90;;;9.35;100.00;100619.09;4916834;29;20035;-75
2022/10/23 07:35:23;;;;;;;28.27;12.07;;;10.80;99.90;;;9.41;100.00;100607.34;4922209;29;20525;-75
2022/10/23 07:38:02;;;;;;;23.17;11.45;;;10.90;99.90;;;9.54;100.00;100605.69;4923543;29;20115;-75
2022/10/23 07:40:31;;;;;;;24.48;10.90;;;11.00;99.90;;;9.64;100.00;100612.38;4926761;29;20505;-76
2022/10/23 07:42:57;;;;;;;22.65;11.15;;;11.10;99.90;;;9.71;100.00;100614.25;4921753;29;20027;-77
2022/10/23 07:45:24;;;;;;;26.70;11.65;;;11.20;99.90;;;9.81;100.00;100611.91;4925378;29;20031;-76
2022/10/23 07:47:51;;;;;;;25.88;12.18;;;11.30;99.90;;;9.81;100.00;100614.66;4929652;29;20028;-76
2022/10/23 07:50:17;;;;;;;22.92;11.98;;;11.30;99.90;;;9.86;100.00;100603.97;4920808;29;20038;-76
2022/10/23 07:52:43;;;;;;;20.92;11.70;;;11.40;99.90;;;10.02;100.00;100612.72;4929030;29;20036;-75
2022/10/23 07:55:12;;;;;;;21.58;11.30;;;11.40;99.90;;;10.13;100.00;100613.94;4921659;29;20071;-76
2022/10/23 07:57:52;;;;;;;21.05;10.18;;;11.50;99.90;;;10.36;100.00;100624.38;4918696;29;20039;-76
2022/10/23 08:00:50;;;;;;;17.38;9.55;;;11.70;99.90;;;10.56;100.00;100629.75;4914765;29;20075;-77
2022/10/23 08:03:31;;;;;;;19.98;8.75;;;11.90;99.90;;;10.68;100.00;100619.00;4934423;29;20045;-80
2022/10/23 08:05:59;;;;;;;17.27;8.65;;;12.00;99.90;;;10.82;100.00;100616.19;4929011;28;20681;-79
2022/10/23 08:08:26;;;;;;;13.88;8.40;;;12.10;99.90;;;10.93;100.00;100612.78;4924227;28;20052;-78
2022/10/23 08:10:55;;;;;;;16.42;8.88;;;12.30;99.90;;;11.08;100.00;100612.44;4921251;28;20119;-78
2022/10/23 08:13:27;;;;;;;17.30;8.43;;;12.40;99.90;;;11.21;100.00;100609.59;4922838;28;20034;-77
2022/10/23 08:16:04;;;;;;;13.73;8.13;;;12.50;99.90;;;11.33;100.00;100603.44;4927991;29;20027;-82
2022/10/23 08:18:53;;;;;;;13.00;7.28;;;12.70;99.90;;;11.36;100.00;100590.16;4926846;28;20032;-80
2022/10/23 08:21:19;;;;;;;13.93;7.30;;;12.90;99.90;;;11.64;100.00;100609.88;4935409;29;20027;-77
2022/10/23 08:23:45;;;;;;;13.55;5.95;;;13.00;99.90;;;11.80;100.00;100613.94;4938363;29;20094;-78
2022/10/23 08:26:14;;;;;;;11.05;5.60;;;13.20;99.90;;;11.98;100.00;100612.28;4926696;28;20028;-77
2022/10/23 08:28:40;;;;;;;10.10;5.65;;;13.30;99.90;;;12.11;100.00;100606.69;4935769;28;20483;-76
2022/10/23 08:31:13;;;;;;;10.18;4.93;;;13.50;99.90;;;12.29;100.00;100618.69;4929024;29;20151;-78
2022/10/23 08:33:44;;;;;;;9.07;4.63;;;13.70;99.90;;;12.39;100.00;100613.50;4938841;28;20024;-78
2022/10/23 08:36:27;;;;;;;9.38;3.83;;;13.80;99.90;;;12.47;100.00;100617.84;4926426;29;20068;-79
2022/10/23 08:38:56;;;;;;;7.70;4.00;;;13.90;99.90;;;12.67;100.00;100617.56;4923910;29;20031;-78
2022/10/23 08:41:28;;;;;;;8.35;4.07;;;14.10;99.90;;;12.85;100.00;100608.47;4928158;29;20055;-79
2022/10/23 08:44:29;;;;;;;9.45;3.85;;;14.20;99.90;;;13.13;100.00;100615.22;4934194;29;20060;-80
2022/10/23 08:47:30;;;;;;;12.07;3.75;;;14.40;99.90;;;13.28;100.00;100617.53;4920287;29;20046;-80
2022/10/23 08:50:27;;;;;;;8.05;3.30;;;14.70;99.90;;;13.44;100.00;100607.81;4933205;29;20043;-81
2022/10/23 08:53:28;;;;;;;5.63;2.70;;;14.80;99.90;;;13.63;100.00;100602.19;4928512;29;20476;-83
2022/10/23 08:56:25;;;;;;;7.85;2.95;;;15.00;99.90;;;13.82;100.00;100586.47;4926883;29;20075;-86
2022/10/23 08:59:38;;;;;;;7.10;2.92;;;15.20;99.90;;;13.94;100.00;100579.03;4924486;29;20040;-80
2022/10/23 09:02:07;;;;;;;8.68;3.42;;;15.40;99.90;;;14.10;100.00;100596.66;4926375;29;20043;-81
2022/10/23 09:04:33;;;;;;;6.45;2.53;;;15.60;99.90;;;14.17;100.00;100595.69;4931439;29;20086;-82
2022/10/23 09:07:15;;;;;;;7.43;3.13;;;15.60;99.90;;;14.35;100.00;100600.19;4927625;29;20089;-78
2022/10/23 09:10:00;;;;;;;4.93;2.80;;;15.70;99.90;;;14.44;100.00;100593.22;4926074;29;20028;-78
2022/10/23 09:12:29;;;;;;;6.65;2.53;;;15.90;99.90;;;14.58;100.00;100598.41;4930985;29;20035;-79
2022/10/23 09:15:06;;;;;;;9.18;2.88;;;16.00;99.90;;;14.70;100.00;100601.97;4922540;29;20451;-79
2022/10/23 09:17:39;;;;;;;5.40;2.20;;;16.10;99.90;;;14.51;100.00;100587.59;4921818;29;20035;-81
2022/10/23 09:20:20;;;;;;;7.28;2.30;;;16.10;99.90;;;14.68;100.00;100593.13;4932212;29;20063;-80
2022/10/23 09:23:17;;;;;;;5.40;2.22;;;16.10;99.90;;;14.65;100.00;100585.41;4938400;29;20051;-77
2022/10/23 09:25:46;;;;;;;6.45;2.30;;;16.20;99.90;;;14.83;100.00;100595.38;4938327;29;21073;-80
2022/10/23 09:28:31;;;;;;;6.50;2.40;;;16.30;99.90;;;14.89;100.00;100571.59;4936199;28;20055;-80
2022/10/23 09:31:11;;;;;;;9.38;2.50;;;16.40;99.90;;;15.28;100.00;100607.41;4926393;29;20031;-82
2022/10/23 09:33:38;;;;;;;5.72;2.50;;;16.70;99.90;;;15.26;100.00;100595.00;4926082;29;20027;-81
2022/10/23 09:36:17;;;;;;;5.47;1.98;;;16.90;99.90;;;15.49;100.00;100605.81;4926314;29;20337;-80
2022/10/23 09:38:46;;;;;;;5.80;2.10;;;17.10;99.90;;;15.42;100.00;100607.09;4920744;29;20086;-79
2022/10/23 09:41:27;;;;;;;6.57;2.20;;;17.20;99.90;;;15.55;100.00;100611.41;4924171;28;20110;-81
2022/10/23 09:44:19;;;;;;;6.43;1.98;;;17.30;99.90;;;15.95;100.00;100607.59;4920282;29;20351;-79
2022/10/23 09:46:52;;;;;;;5.65;1.70;;;17.50;99.90;;;16.03;100.00;100609.09;4916629;29;20032;-80
2022/10/23 09:49:21;;;;;;;5.03;1.63;;;17.70;99.90;;;16.09;100.00;100616.31;4922695;28;20538;-79
2022/10/23 09:52:21;;;;;;;6.72;1.92;;;17.70;99.90;;;16.21;100.00;100613.47;4945165;28;20083;-79
2022/10/23 09:54:55;;;;;;;4.97;1.88;;;17.70;99.90;;;16.03;100.00;100595.34;4931821;29;20049;-80
2022/10/23 09:57:40;;;;;;;6.38;2.10;;;17.70;99.90;;;16.22;100.00;100601.34;4920861;29;20019;-80
2022/10/23 10:00:24;;;;;;;6.22;2.10;;;17.70;99.90;;;16.24;100.00;100579.91;4926112;29;20031;-79
2022/10/23 10:03:03;;;;;;;5.32;2.15;;;17.70;99.90;;;16.32;100.00;100598.75;4926844;29;20458;-78
2022/10/23 10:06:02;;;;;;;3.78;1.67;;;17.80;99.90;;;16.36;100.00;100597.16;4920421;29;20051;-81
2022/10/23 10:08:47;;;;;;;6.00;1.60;;;17.90;99.90;;;16.31;100.00;100596.25;4926886;29;20059;-76
2022/10/23 10:11:43;;;;;;;8.30;1.50;;;17.80;99.90;;;16.15;100.00;100581.47;4921507;29;20458;-76
2022/10/23 10:14:25;;;;;;;4.20;1.60;;;17.70;99.90;;;15.92;100.00;100581.47;4923315;29;20035;-79
2022/10/23 10:17:05;;;;;;;5.22;1.55;;;17.50;99.90;;;15.88;100.00;100571.19;4934416;29;20035;-78
2022/10/23 10:20:06;;;;;;;6.18;1.50;;;17.50;99.90;;;16.06;100.00;100575.56;4924955;29;20043;-78
2022/10/23 10:22:52;;;;;;;5.63;1.77;;;17.40;99.90;;;16.04;100.00;100569.50;4927803;28;20497;-78
2022/10/23 10:25:42;;;;;;;3.90;1.40;;;17.50;99.90;;;16.04;100.00;100561.22;4930454;29;20071;-78
2022/10/23 10:28:29;;;;;;;3.35;1.30;;;17.50;99.90;;;15.93;100.00;100552.84;4927998;29;20460;-75
2022/10/23 10:31:18;;;;;;;5.50;1.70;;;17.40;99.90;;;15.75;100.00;100550.38;4937820;29;20052;-78
2022/10/23 10:34:18;;;;;;;3.87;1.40;;;17.30;99.90;;;15.70;100.00;100548.38;4943133;29;20098;-83
2022/10/23 10:37:14;;;;;;;5.68;1.40;;;17.20;99.90;;;15.79;100.00;100552.38;4952721;28;20306;-85
2022/10/23 10:40:17;;;;;;;3.97;1.40;;;17.20;99.90;;;15.98;100.00;100548.50;4947802;29;20043;-82
2022/10/23 10:43:04;;;;;;;5.22;1.35;;;17.30;99.90;;;16.31;100.00;100547.53;4951987;29;20031;-85